< < Back
Terminal Aerodrome Forecast


Current Version              Previous Versions:   1  2  3  4  5  6  7  8  9  

Terminal Aerodrome Forecast

397
FTUS42 KCHS 240533
TAFCHS
TAF
KCHS 240533Z 2406/2506 05003KT P6SM FEW250
     FM241400 07010G15KT P6SM SCT040
     FM250100 06004KT P6SM SKC=

Latest METAR

583
SAUS80 KWBC 240800
MTRCHS
METAR KCHS 240756Z 02004KT 10SM FEW070 22/20 A3020 RMK AO2 SLP226
T02220200


USA.gov is the U.S. government's official web portal to all federal, state and local government web resources and services.